Time;durP1;ratioP1;P1;durP2;ratioP2;P2;SDS_P1;SDS_P2;PMS_P1;PMS_P2;Temp;Humidity;BMP_temperature;BMP_pressure;BME280_temperature;BME280_humidity;BME280_pressure;Samples;Min_cycle;Max_cycle;Signal;HPM_P1;HPM_P2
2021/10/24 00:00:27;;;;;;;22.67;9.93;;;;;;;3.14;100.00;100067.40;2247962;79;21050;-82
2021/10/24 00:03:30;;;;;;;20.35;9.85;;;;;;;3.08;100.00;100063.44;2248034;79;21033;-81
2021/10/24 00:06:30;;;;;;;22.13;11.25;;;;;;;3.05;100.00;100066.23;2247884;79;21493;-79
2021/10/24 00:09:34;;;;;;;19.23;10.28;;;;;;;3.04;100.00;100055.98;2247274;79;21028;-81
2021/10/24 00:12:36;;;;;;;18.07;10.75;;;;;;;3.01;100.00;100067.80;2247648;79;21065;-80
2021/10/24 00:15:37;;;;;;;23.52;10.50;;;;;;;2.96;100.00;100064.23;2247723;79;21057;-81
2021/10/24 00:18:38;;;;;;;19.60;9.08;;;;;;;2.92;100.00;100078.74;2247749;79;21187;-81
2021/10/24 00:21:39;;;;;;;23.85;10.03;;;;;;;2.89;100.00;100078.48;2247511;79;21093;-81
2021/10/24 00:24:40;;;;;;;22.02;11.33;;;;;;;2.84;100.00;100076.20;2247753;79;20957;-80
2021/10/24 00:27:41;;;;;;;16.57;9.78;;;;;;;2.85;100.00;100071.86;2247679;79;21542;-81
2021/10/24 00:30:41;;;;;;;22.45;10.68;;;;;;;2.81;100.00;100075.55;2247897;79;20954;-81
2021/10/24 00:33:42;;;;;;;32.00;11.97;;;;;;;2.76;100.00;100068.09;2237591;78;21160;-81
2021/10/24 00:36:43;;;;;;;26.30;11.35;;;;;;;2.74;100.00;100063.92;2213936;80;21572;-81
2021/10/24 00:39:45;;;;;;;22.10;10.70;;;;;;;2.68;100.00;100069.04;2214175;80;21041;-81
2021/10/24 00:42:46;;;;;;;28.80;12.58;;;;;;;2.66;100.00;100078.66;2214259;80;21489;-81
2021/10/24 00:45:47;;;;;;;26.15;11.45;;;;;;;2.67;100.00;100079.48;2214296;80;21009;-82
2021/10/24 00:48:48;;;;;;;23.18;12.00;;;;;;;2.63;100.00;100088.34;2214464;80;20989;-80
2021/10/24 00:51:49;;;;;;;22.52;10.65;;;;;;;2.60;100.00;100085.96;2214337;80;20915;-81
2021/10/24 00:54:50;;;;;;;30.92;12.75;;;;;;;2.59;100.00;100083.84;2214587;80;22116;-81
2021/10/24 00:57:51;;;;;;;34.35;13.20;;;;;;;2.58;100.00;100095.11;2214269;80;21013;-81
2021/10/24 01:00:52;;;;;;;35.23;12.03;;;;;;;2.58;100.00;100095.11;2214251;80;21004;-80
2021/10/24 01:03:53;;;;;;;32.17;12.00;;;;;;;2.56;100.00;100096.94;2214351;80;21493;-81
2021/10/24 01:06:54;;;;;;;22.90;11.95;;;;;;;2.52;100.00;100098.89;2214282;80;21358;-81
2021/10/24 01:09:55;;;;;;;29.72;12.43;;;;;;;2.51;100.00;100101.58;2214346;80;21026;-81
2021/10/24 01:12:56;;;;;;;29.65;12.20;;;;;;;2.52;100.00;100105.36;2214437;80;21017;-82
2021/10/24 01:15:57;;;;;;;28.83;11.73;;;;;;;2.54;100.00;100106.09;2214302;80;20993;-81
2021/10/24 01:18:58;;;;;;;30.00;11.45;;;;;;;2.56;100.00;100112.02;2214236;80;21010;-81
2021/10/24 01:21:59;;;;;;;22.48;12.47;;;;;;;2.60;100.00;100110.53;2214114;80;21591;-81
2021/10/24 01:24:59;;;;;;;28.87;12.47;;;;;;;2.63;100.00;100112.45;2214393;80;20986;-82
2021/10/24 01:28:03;;;;;;;24.80;10.72;;;;;;;2.71;100.00;100113.27;2213780;80;21002;-81
2021/10/24 01:31:04;;;;;;;22.55;9.75;;;;;;;2.77;100.00;100111.14;2192778;80;21519;-80
2021/10/24 01:34:05;;;;;;;21.00;8.80;;;;;;;2.85;100.00;100105.49;2223725;79;21014;-80
2021/10/24 01:37:06;;;;;;;21.17;9.43;;;;;;;2.91;100.00;100102.50;2243607;79;21008;-80
2021/10/24 01:40:07;;;;;;;20.08;8.38;;;;;;;2.94;100.00;100107.97;2243853;79;21068;-80
2021/10/24 01:43:08;;;;;;;19.70;8.80;;;;;;;2.98;100.00;100104.23;2243757;79;21054;-81
2021/10/24 01:46:09;;;;;;;18.30;8.85;;;;;;;3.07;100.00;100107.53;2243873;79;21034;-80
2021/10/24 01:49:10;;;;;;;20.27;9.03;;;;;;;3.14;100.00;100103.63;2243933;79;20955;-81
2021/10/24 01:52:10;;;;;;;22.82;9.55;;;;;;;3.17;100.00;100100.84;2243979;79;20997;-79
2021/10/24 01:55:11;;;;;;;17.40;8.83;;;;;;;3.22;100.00;100100.56;2243973;79;21546;-79
2021/10/24 01:58:12;;;;;;;18.20;8.60;;;;;;;3.30;100.00;100099.14;2243895;79;21010;-80
2021/10/24 02:01:13;;;;;;;23.35;9.68;;;;;;;3.39;100.00;100097.23;2243954;79;21628;-80
2021/10/24 02:04:15;;;;;;;19.17;8.30;;;;;;;3.48;100.00;100100.16;2243837;79;21248;-80
2021/10/24 02:07:16;;;;;;;16.67;8.35;;;;;;;3.55;100.00;100103.52;2243861;79;21509;-79
2021/10/24 02:10:16;;;;;;;20.23;8.65;;;;;;;3.59;100.00;100109.34;2243968;79;21045;-79
2021/10/24 02:13:17;;;;;;;17.65;8.95;;;;;;;3.66;100.00;100107.55;2243985;79;21422;-80
2021/10/24 02:16:18;;;;;;;20.82;9.48;;;;;;;3.69;100.00;100111.69;2244002;79;21100;-79
2021/10/24 02:19:21;;;;;;;25.75;9.18;;;;;;;3.72;100.00;100112.77;2243172;79;21029;-79
2021/10/24 02:22:22;;;;;;;18.00;9.45;;;;;;;3.79;100.00;100113.20;2243961;79;21506;-80
2021/10/24 02:25:22;;;;;;;27.35;9.85;;;;;;;3.85;100.00;100114.09;2243835;79;21040;-80
2021/10/24 02:28:23;;;;;;;20.75;8.65;;;;;;;3.88;100.00;100109.52;2243979;79;20951;-79
2021/10/24 02:31:25;;;;;;;18.75;9.58;;;;;;;3.96;100.00;100109.02;2244051;79;20997;-80
2021/10/24 02:34:26;;;;;;;28.77;10.58;;;;;;;4.02;100.00;100118.95;2243926;79;21534;-80
2021/10/24 02:37:26;;;;;;;22.42;10.58;;;;;;;4.04;100.00;100115.81;2243799;79;21085;-79
2021/10/24 02:40:27;;;;;;;16.93;9.58;;;;;;;4.08;100.00;100115.13;2243604;79;21046;-80
2021/10/24 02:43:28;;;;;;;24.12;9.65;;;;;;;4.13;100.00;100111.30;2244060;79;20982;-79
2021/10/24 02:46:29;;;;;;;20.85;9.38;;;;;;;4.16;100.00;100118.85;2243782;79;21045;-81
2021/10/24 02:49:30;;;;;;;18.35;9.78;;;;;;;4.16;100.00;100122.73;2243709;79;20950;-81
2021/10/24 02:52:31;;;;;;;17.98;9.78;;;;;;;4.17;100.00;100124.40;2243539;79;20990;-81
2021/10/24 02:55:33;;;;;;;25.48;10.50;;;;;;;4.19;100.00;100129.00;2221574;79;20966;-81
2021/10/24 02:58:34;;;;;;;22.65;9.83;;;;;;;4.19;100.00;100134.19;2244232;79;21048;-81
2021/10/24 03:01:35;;;;;;;17.75;10.40;;;;;;;4.20;100.00;100131.95;2243608;79;21036;-81
2021/10/24 03:04:36;;;;;;;17.15;9.75;;;;;;;4.25;100.00;100144.63;2244226;79;21597;-81
2021/10/24 03:07:37;;;;;;;24.23;10.45;;;;;;;4.25;100.00;100141.56;2243980;79;20981;-81
2021/10/24 03:10:38;;;;;;;16.32;10.13;;;;;;;4.23;100.00;100143.44;2244256;79;21025;-81
2021/10/24 03:13:39;;;;;;;22.73;10.95;;;;;;;4.26;100.00;100151.47;2244025;79;20962;-81
2021/10/24 03:16:40;;;;;;;21.48;10.50;;;;;;;4.29;100.00;100153.84;2243985;79;20982;-81
2021/10/24 03:19:43;;;;;;;21.07;9.58;;;;;;;4.34;100.00;100153.07;2244117;79;21049;-81
2021/10/24 03:22:44;;;;;;;19.85;11.00;;;;;;;4.36;100.00;100157.67;2244041;79;21085;-81
2021/10/24 03:25:46;;;;;;;19.02;9.73;;;;;;;4.34;100.00;100163.44;2243904;79;21532;-80
2021/10/24 03:28:47;;;;;;;18.15;9.58;;;;;;;4.29;100.00;100168.92;2243752;79;21116;-80
2021/10/24 03:31:48;;;;;;;25.35;9.65;;;;;;;4.25;100.00;100164.06;2243793;79;20958;-80
2021/10/24 03:34:49;;;;;;;22.30;10.40;;;;;;;4.15;100.00;100159.97;2245404;79;21556;-80
2021/10/24 03:37:50;;;;;;;22.85;10.60;;;;;;;4.11;100.00;100166.75;2247493;79;21037;-80
2021/10/24 03:40:50;;;;;;;22.02;10.18;;;;;;;4.01;100.00;100171.72;2247809;79;21445;-80
2021/10/24 03:43:51;;;;;;;25.52;11.08;;;;;;;3.93;100.00;100169.66;2247604;79;21049;-81
2021/10/24 03:46:52;;;;;;;23.15;9.85;;;;;;;3.86;100.00;100173.59;2247314;79;21564;-79
2021/10/24 03:49:53;;;;;;;21.77;9.73;;;;;;;3.79;100.00;100179.27;2247580;79;20958;-80
2021/10/24 03:52:54;;;;;;;17.77;9.90;;;;;;;3.65;100.00;100180.98;2247495;79;22066;-80
2021/10/24 03:55:55;;;;;;;24.67;11.30;;;;;;;3.58;100.00;100191.41;2247670;79;21053;-80
2021/10/24 03:58:57;;;;;;;22.17;11.22;;;;;;;3.52;100.00;100189.66;2247839;79;20989;-81
2021/10/24 04:01:58;;;;;;;20.43;9.85;;;;;;;3.47;100.00;100195.12;2247953;79;20939;-81
2021/10/24 04:04:59;;;;;;;23.85;11.18;;;;;;;3.41;100.00;100189.89;2248028;79;21064;-80
2021/10/24 04:08:00;;;;;;;18.42;9.85;;;;;;;3.38;100.00;100201.75;2248028;79;20950;-80
2021/10/24 04:11:00;;;;;;;20.70;9.78;;;;;;;3.32;100.00;100198.24;2247851;79;21100;-80
2021/10/24 04:14:01;;;;;;;23.52;9.45;;;;;;;3.25;100.00;100200.84;2247835;79;20950;-81
2021/10/24 04:17:02;;;;;;;20.25;9.95;;;;;;;3.21;100.00;100209.75;2247798;79;20998;-80
2021/10/24 04:20:03;;;;;;;15.75;8.70;;;;;;;3.15;100.00;100211.41;2247840;79;21009;-80
2021/10/24 04:23:04;;;;;;;20.88;10.10;;;;;;;3.12;100.00;100204.68;2248005;79;21008;-80
2021/10/24 04:26:04;;;;;;;19.05;10.18;;;;;;;3.09;100.00;100200.14;2247871;79;20957;-80
2021/10/24 04:29:05;;;;;;;18.67;8.83;;;;;;;3.03;100.00;100201.84;2248027;79;20985;-79
2021/10/24 04:32:06;;;;;;;20.35;10.08;;;;;;;2.93;100.00;100208.05;2247938;79;20986;-79
2021/10/24 04:35:07;;;;;;;18.40;10.10;;;;;;;2.88;100.00;100202.31;2246061;79;21108;-80
2021/10/24 04:38:08;;;;;;;26.87;11.70;;;;;;;2.87;100.00;100209.70;2243960;79;20947;-80
2021/10/24 04:41:08;;;;;;;19.32;10.25;;;;;;;2.86;100.00;100217.10;2243903;79;21069;-81
2021/10/24 04:44:09;;;;;;;24.40;10.85;;;;;;;2.86;100.00;100218.39;2243918;79;20951;-80
2021/10/24 04:47:10;;;;;;;18.42;9.88;;;;;;;2.82;100.00;100219.02;2244130;79;20986;-79
2021/10/24 04:50:11;;;;;;;23.85;11.43;;;;;;;2.79;100.00;100227.45;2243815;79;20993;-82
2021/10/24 04:53:12;;;;;;;22.05;10.63;;;;;;;2.74;100.00;100231.62;2243972;79;20946;-81
2021/10/24 04:56:12;;;;;;;26.48;10.50;;;;;;;2.66;100.00;100231.72;2244143;79;20977;-81
2021/10/24 04:59:13;;;;;;;19.67;9.83;;;;;;;2.61;100.00;100228.56;2243947;79;20966;-82
2021/10/24 05:02:14;;;;;;;24.20;10.88;;;;;;;2.46;100.00;100229.00;2243888;79;21477;-80
2021/10/24 05:05:15;;;;;;;21.60;11.83;;;;;;;2.36;100.00;100237.77;2243807;79;20985;-80
2021/10/24 05:08:16;;;;;;;19.75;11.90;;;;;;;2.30;100.00;100228.27;2243811;79;20947;-80
2021/10/24 05:11:16;;;;;;;21.57;11.03;;;;;;;2.27;100.00;100237.02;2243589;79;21035;-80
2021/10/24 05:14:17;;;;;;;20.97;9.90;;;;;;;2.26;100.00;100234.89;2243907;79;21018;-81
2021/10/24 05:17:18;;;;;;;21.52;10.60;;;;;;;2.28;100.00;100243.38;2243770;79;21025;-81
2021/10/24 05:20:19;;;;;;;22.00;10.95;;;;;;;2.25;100.00;100233.69;2243923;79;20973;-80
2021/10/24 05:23:20;;;;;;;20.23;11.40;;;;;;;2.27;100.00;100236.55;2243835;79;21529;-80
2021/10/24 05:26:21;;;;;;;20.12;11.15;;;;;;;2.26;100.00;100236.18;2243954;79;21036;-80
2021/10/24 05:29:22;;;;;;;27.05;11.63;;;;;;;2.21;100.00;100238.69;2243402;79;21069;-80
2021/10/24 05:32:23;;;;;;;19.32;10.65;;;;;;;2.21;100.00;100251.61;2243800;79;21005;-80
2021/10/24 05:35:24;;;;;;;25.52;11.80;;;;;;;2.22;100.00;100249.39;2243755;79;21060;-81
2021/10/24 05:38:25;;;;;;;20.85;10.35;;;;;;;2.27;100.00;100251.23;2243904;79;20993;-82
2021/10/24 05:41:25;;;;;;;23.32;11.40;;;;;;;2.27;100.00;100252.52;2244049;79;20985;-81
2021/10/24 05:44:26;;;;;;;22.00;10.05;;;;;;;2.30;100.00;100267.04;2243904;79;21089;-81
2021/10/24 05:47:28;;;;;;;26.52;12.40;;;;;;;2.30;100.00;100265.75;2244385;79;20958;-81
2021/10/24 05:50:29;;;;;;;25.20;11.40;;;;;;;2.35;100.00;100258.54;2244187;79;21013;-81
2021/10/24 05:53:30;;;;;;;25.50;11.08;;;;;;;2.34;100.00;100268.52;2243749;79;20950;-81
2021/10/24 05:56:31;;;;;;;34.58;17.77;;;;;;;2.34;100.00;100270.63;2243659;79;21057;-83
2021/10/24 05:59:32;;;;;;;53.15;28.98;;;;;;;2.37;100.00;100278.66;2243967;79;21005;-86
2021/10/24 06:02:35;;;;;;;41.68;20.02;;;;;;;2.39;100.00;100275.55;2243377;79;21062;-82
2021/10/24 06:05:36;;;;;;;46.33;20.00;;;;;;;2.46;100.00;100273.78;2243654;79;21514;-83
2021/10/24 06:08:37;;;;;;;41.42;15.95;;;;;;;2.60;100.00;100278.16;2243387;79;21001;-82
2021/10/24 06:11:54;;;;;;;42.80;15.78;;;;;;;2.76;100.00;100284.55;2243698;79;20986;-85
2021/10/24 06:14:50;;;;;;;49.33;16.65;;;;;;;2.87;100.00;100300.27;2242919;79;20958;-83
2021/10/24 06:17:50;;;;;;;32.28;13.83;;;;;;;2.97;100.00;100300.07;2243999;79;21017;-82
2021/10/24 06:20:51;;;;;;;30.40;14.00;;;;;;;3.08;100.00;100302.00;2243967;79;20982;-85
2021/10/24 06:23:52;;;;;;;33.42;16.45;;;;;;;3.12;100.00;100306.92;2244085;79;20950;-85
2021/10/24 06:26:53;;;;;;;28.10;14.45;;;;;;;3.18;100.00;100310.87;2243862;79;20974;-84
2021/10/24 06:29:54;;;;;;;24.52;13.30;;;;;;;3.21;100.00;100309.41;2243783;79;20997;-83
2021/10/24 06:32:55;;;;;;;27.80;14.85;;;;;;;3.29;100.00;100309.77;2243987;79;21085;-83
2021/10/24 06:35:55;;;;;;;29.32;14.63;;;;;;;3.37;100.00;100313.16;2243947;79;21035;-82
2021/10/24 06:38:56;;;;;;;24.72;15.55;;;;;;;3.49;100.00;100314.17;2244291;79;21021;-82
2021/10/24 06:41:57;;;;;;;29.52;15.20;;;;;;;3.58;100.00;100312.31;2243913;79;21085;-82
2021/10/24 06:44:58;;;;;;;33.78;17.00;;;;;;;3.71;100.00;100318.37;2244091;79;21489;-82
2021/10/24 06:47:59;;;;;;;28.50;14.25;;;;;;;3.83;100.00;100321.94;2244021;79;20962;-82
2021/10/24 06:51:00;;;;;;;20.65;12.95;;;;;;;3.92;100.00;100320.88;2244114;79;20951;-82
2021/10/24 06:54:01;;;;;;;21.80;12.37;;;;;;;4.04;100.00;100327.53;2244042;79;20978;-84
2021/10/24 06:57:01;;;;;;;23.87;12.98;;;;;;;4.17;100.00;100322.73;2243923;79;20978;-84
2021/10/24 07:00:02;;;;;;;23.50;10.95;;;;;;;4.27;100.00;100326.85;2243984;79;20992;-83
2021/10/24 07:03:03;;;;;;;21.87;12.05;;;;;;;4.42;100.00;100327.16;2244102;79;21458;-83
2021/10/24 07:06:04;;;;;;;18.23;11.20;;;;;;;4.52;100.00;100332.09;2244150;79;20998;-81
2021/10/24 07:09:08;;;;;;;23.62;11.20;;;;;;;4.63;100.00;100333.97;2244084;79;21561;-81
2021/10/24 07:12:10;;;;;;;27.98;12.75;;;;;;;4.73;100.00;100332.89;2244037;79;20998;-83
2021/10/24 07:15:10;;;;;;;24.63;12.35;;;;;;;4.82;100.00;100333.09;2244183;79;21487;-82
2021/10/24 07:18:11;;;;;;;25.60;12.05;;;;;;;4.90;100.00;100340.38;2244102;79;20959;-83
2021/10/24 07:21:15;;;;;;;22.07;12.25;;;;;;;4.93;100.00;100338.86;2243908;79;21556;-82
2021/10/24 07:24:16;;;;;;;21.73;13.03;;;;;;;4.97;100.00;100344.22;2243959;79;22134;-81
2021/10/24 07:27:18;;;;;;;23.30;12.73;;;;;;;5.00;100.00;100350.49;2243803;79;21032;-83
2021/10/24 07:30:19;;;;;;;26.68;12.78;;;;;;;5.08;100.00;100350.80;2243847;79;21058;-82
2021/10/24 07:33:19;;;;;;;23.00;13.25;;;;;;;5.16;100.00;100358.08;2244038;79;20958;-82
2021/10/24 07:36:20;;;;;;;22.17;11.73;;;;;;;5.27;100.00;100354.73;2243722;79;21132;-83
2021/10/24 07:39:21;;;;;;;19.67;10.45;;;;;;;5.32;100.00;100357.39;2244437;79;21078;-82
2021/10/24 07:42:22;;;;;;;21.75;10.68;;;;;;;5.36;100.00;100360.13;2244175;79;20946;-84
2021/10/24 07:45:23;;;;;;;24.77;11.70;;;;;;;5.45;100.00;100372.12;2244021;79;21005;-81
2021/10/24 07:48:24;;;;;;;22.80;11.28;;;;;;;5.61;100.00;100371.42;2244184;79;21446;-82
2021/10/24 07:51:25;;;;;;;23.62;10.82;;;;;;;5.61;100.00;100371.42;2243754;79;21097;-78
2021/10/24 07:54:26;;;;;;;24.02;10.65;;;;;;;5.74;100.00;100376.57;2244215;79;20911;-84
2021/10/24 07:57:27;;;;;;;20.92;10.58;;;;;;;5.84;100.00;100377.11;2243966;79;21017;-81
2021/10/24 08:00:28;;;;;;;24.70;11.12;;;;;;;5.95;100.00;100376.41;2244089;79;20919;-85
2021/10/24 08:03:29;;;;;;;21.45;11.33;;;;;;;6.06;100.00;100375.63;2244005;79;21008;-83
2021/10/24 08:06:31;;;;;;;22.67;9.95;;;;;;;6.17;100.00;100371.78;2244134;79;20954;-83
2021/10/24 08:09:32;;;;;;;19.65;9.93;;;;;;;6.25;100.00;100368.16;2243929;79;21042;-86
2021/10/24 08:12:33;;;;;;;23.05;9.68;;;;;;;6.31;100.00;100377.26;2244029;79;21530;-84
2021/10/24 08:15:34;;;;;;;29.32;11.03;;;;;;;6.32;100.00;100379.78;2243810;79;20966;-82
2021/10/24 08:18:35;;;;;;;22.17;9.35;;;;;;;6.41;100.00;100380.41;2243588;79;20981;-83
2021/10/24 08:21:36;;;;;;;18.12;11.20;;;;;;;6.51;100.00;100379.26;2243887;79;20963;-85
2021/10/24 08:24:37;;;;;;;19.85;9.63;;;;;;;6.65;100.00;100384.25;2243700;79;20997;-82
2021/10/24 08:27:37;;;;;;;21.93;11.00;;;;;;;6.69;100.00;100376.59;2243459;79;20911;-86
2021/10/24 08:30:41;;;;;;;24.80;10.38;;;;;;;6.73;100.00;100383.22;2243715;79;21024;-84
2021/10/24 08:33:42;;;;;;;18.45;10.13;;;;;;;6.82;100.00;100388.20;2243307;78;21054;-84
2021/10/24 08:36:42;;;;;;;21.12;9.85;;;;;;;6.99;100.00;100386.95;2242841;79;21053;-82
2021/10/24 08:39:48;;;;;;;18.90;9.88;;;;;;;7.03;100.00;100391.80;2243927;79;21069;-82
2021/10/24 08:42:51;;;;;;;16.32;8.20;;;;;;;7.13;100.00;100395.83;2242991;79;21092;-82
2021/10/24 08:45:49;;;;;;;17.87;8.28;;;;;;;7.11;100.00;100390.74;2243607;79;21013;-81
2021/10/24 08:48:50;;;;;;;23.12;10.58;;;;;;;7.15;100.00;100380.94;2243749;79;21497;-80
2021/10/24 08:51:51;;;;;;;24.55;10.32;;;;;;;7.22;100.00;100383.88;2221285;79;21001;-83
2021/10/24 08:54:54;;;;;;;21.00;8.55;;;;;;;7.26;100.00;100382.72;2242948;79;21606;-83
2021/10/24 08:57:54;;;;;;;21.37;9.50;;;;;;;7.30;100.00;100380.22;2243332;79;21006;-81
2021/10/24 09:00:55;;;;;;;19.40;9.40;;;;;;;7.35;100.00;100382.01;2243433;79;20947;-82
2021/10/24 09:03:56;;;;;;;19.35;8.75;;;;;;;7.36;100.00;100385.80;2243518;79;21017;-83
2021/10/24 09:06:57;;;;;;;14.53;6.97;;;;;;;7.38;100.00;100375.25;2243983;79;20962;-84
2021/10/24 09:09:58;;;;;;;20.37;9.30;;;;;;;7.50;100.00;100387.80;2243566;79;21306;-84
2021/10/24 09:12:59;;;;;;;16.70;8.18;;;;;;;7.61;100.00;100396.94;2243764;79;20954;-84
2021/10/24 09:16:00;;;;;;;19.20;8.35;;;;;;;7.75;100.00;100401.88;2243677;79;21045;-83
2021/10/24 09:19:01;;;;;;;19.07;8.53;;;;;;;7.91;100.00;100406.73;2243678;79;21465;-83
2021/10/24 09:22:02;;;;;;;11.43;7.25;;;;;;;8.07;100.00;100412.39;2243452;79;20982;-83
2021/10/24 09:25:03;;;;;;;18.62;8.93;;;;;;;8.23;100.00;100404.18;2243906;79;21548;-84
2021/10/24 09:28:04;;;;;;;14.43;7.72;;;;;;;8.39;100.00;100411.13;2243720;79;21025;-85
2021/10/24 09:31:07;;;;;;;14.47;7.08;;;;;;;8.65;100.00;100415.54;2220909;79;21030;-83
2021/10/24 09:34:08;;;;;;;11.12;6.22;;;;;;;8.87;100.00;100408.53;2221117;79;21476;-86
2021/10/24 09:37:09;;;;;;;13.25;7.37;;;;;;;9.03;100.00;100398.47;2243619;79;21049;-82
2021/10/24 09:40:10;;;;;;;18.15;6.60;;;;;;;9.11;100.00;100403.40;2243475;79;21081;-82
2021/10/24 09:43:13;;;;;;;18.57;6.95;;;;;;;9.09;100.00;100410.55;2243108;79;21010;-81
2021/10/24 09:46:14;;;;;;;12.70;6.55;;;;;;;9.08;100.00;100404.98;2243422;79;20974;-81
2021/10/24 09:49:15;;;;;;;12.50;6.75;;;;;;;9.05;100.00;100414.84;2243636;79;21516;-83
2021/10/24 09:52:16;;;;;;;16.73;7.53;;;;;;;9.03;100.00;100408.44;2243743;79;21096;-86
2021/10/24 09:55:17;;;;;;;15.68;6.97;;;;;;;9.04;100.00;100406.66;2243879;79;21465;-87
2021/10/24 09:58:18;;;;;;;15.48;7.37;;;;;;;9.07;100.00;100411.64;2243864;79;21585;-83
2021/10/24 10:01:19;;;;;;;19.12;7.30;;;;;;;9.13;100.00;100404.09;2243923;79;20989;-85
2021/10/24 10:04:20;;;;;;;12.93;6.30;;;;;;;9.24;100.00;100402.39;2243929;79;20955;-79
2021/10/24 10:07:22;;;;;;;14.78;5.85;;;;;;;9.37;100.00;100395.14;2243935;79;20962;-80
2021/10/24 10:10:23;;;;;;;16.12;6.85;;;;;;;9.49;100.00;100398.00;2243935;79;21058;-82
2021/10/24 10:13:24;;;;;;;12.53;5.42;;;;;;;9.68;100.00;100403.78;2243847;79;21093;-86
2021/10/24 10:16:25;;;;;;;10.90;5.10;;;;;;;9.87;100.00;100406.94;2244051;79;21037;-83
2021/10/24 10:19:26;;;;;;;9.60;5.10;;;;;;;10.02;100.00;100401.69;2244167;79;20985;-84
2021/10/24 10:22:27;;;;;;;12.75;5.28;;;;;;;10.19;100.00;100410.67;2243944;79;21005;-87
2021/10/24 10:25:30;;;;;;;8.53;4.03;;;;;;;10.25;100.00;100406.23;2221323;79;21026;-86
2021/10/24 10:28:31;;;;;;;7.78;3.75;;;;;;;10.25;100.00;100412.30;2244022;79;21054;-85
2021/10/24 10:31:32;;;;;;;11.40;4.28;;;;;;;10.33;100.00;100410.77;2243918;79;21065;-86
2021/10/24 10:34:33;;;;;;;10.00;3.95;;;;;;;10.50;100.00;100415.33;2243870;79;21077;-87
2021/10/24 10:37:34;;;;;;;6.92;4.05;;;;;;;10.76;100.00;100407.25;2243890;79;21069;-85
2021/10/24 10:40:35;;;;;;;5.50;3.22;;;;;;;10.97;100.00;100404.48;2243886;79;21061;-86
2021/10/24 10:43:35;;;;;;;12.18;4.53;;;;;;;11.22;100.00;100402.20;2243913;79;21460;-87
2021/10/24 10:46:36;;;;;;;11.88;4.15;;;;;;;11.40;100.00;100397.86;2243815;79;21052;-87
2021/10/24 10:49:38;;;;;;;8.85;4.45;;;;;;;11.61;100.00;100398.94;2244079;79;21080;-86
2021/10/24 10:52:39;;;;;;;9.95;4.70;;;;;;;11.72;100.00;100401.88;2243821;79;21009;-86
2021/10/24 10:55:40;;;;;;;7.70;4.03;;;;;;;11.82;100.00;100406.14;2243953;79;20957;-85
2021/10/24 10:58:41;;;;;;;5.65;3.12;;;;;;;11.86;100.00;100404.03;2244004;79;21021;-84
2021/10/24 11:01:42;;;;;;;7.15;3.77;;;;;;;11.87;100.00;100398.62;2243992;79;20950;-85
2021/10/24 11:04:42;;;;;;;7.22;3.20;;;;;;;11.80;100.00;100394.97;2244139;79;21089;-85
2021/10/24 11:07:44;;;;;;;5.42;3.10;;;;;;;11.73;99.17;100395.66;2243861;79;21013;-85
2021/10/24 11:10:45;;;;;;;12.03;4.50;;;;;;;11.77;100.00;100398.31;2243944;79;21070;-85
2021/10/24 11:13:46;;;;;;;7.00;3.90;;;;;;;11.76;99.58;100396.67;2243800;79;20915;-85
2021/10/24 11:16:46;;;;;;;7.60;2.60;;;;;;;11.75;97.95;100391.91;2243631;78;21135;-85
2021/10/24 11:19:47;;;;;;;11.38;4.47;;;;;;;11.81;98.15;100393.16;2243975;79;21077;-82
2021/10/24 11:22:48;;;;;;;8.95;3.87;;;;;;;11.87;98.50;100397.81;2243798;79;20966;-84
2021/10/24 11:25:50;;;;;;;7.20;2.80;;;;;;;11.86;96.60;100392.22;2243853;79;21036;-84
2021/10/24 11:28:51;;;;;;;6.33;2.72;;;;;;;11.83;96.53;100391.21;2243822;79;21553;-82
2021/10/24 11:31:52;;;;;;;6.05;2.87;;;;;;;11.75;96.34;100385.34;2244148;79;21445;-84
2021/10/24 11:34:53;;;;;;;8.75;2.90;;;;;;;11.66;94.87;100391.47;2243795;79;21040;-85
2021/10/24 11:37:54;;;;;;;8.85;3.20;;;;;;;11.55;95.76;100383.80;2246515;79;22249;-86
2021/10/24 11:41:00;;;;;;;8.65;2.50;;;;;;;11.50;95.74;100384.22;2247599;79;20986;-87
2021/10/24 11:44:00;;;;;;;8.55;2.83;;;;;;;11.41;94.63;100382.47;2247523;79;20978;-87
2021/10/24 11:47:01;;;;;;;5.65;3.22;;;;;;;11.35;94.62;100381.27;2247768;79;21510;-85
2021/10/24 11:50:02;;;;;;;7.00;3.10;;;;;;;11.35;95.37;100378.64;2247917;79;20982;-87
2021/10/24 11:53:03;;;;;;;5.97;4.05;;;;;;;11.33;94.17;100377.11;2247947;79;21520;-85
2021/10/24 11:56:04;;;;;;;10.03;4.42;;;;;;;11.29;95.23;100374.45;2247817;79;21006;-86
2021/10/24 11:59:12;;;;;;;6.45;3.27;;;;;;;11.24;95.16;100368.80;2248233;79;21029;-86
2021/10/24 12:02:07;;;;;;;6.33;3.22;;;;;;;11.21;93.66;100373.84;2247040;79;21485;-86
2021/10/24 12:05:08;;;;;;;5.00;3.20;;;;;;;11.22;92.21;100375.98;2247730;79;21009;-87
2021/10/24 12:08:12;;;;;;;13.70;3.30;;;;;;;11.18;93.09;100371.52;2247481;79;21498;-87
2021/10/24 12:11:16;;;;;;;5.70;2.80;;;;;;;11.16;93.27;100363.47;2247732;79;21545;-83
2021/10/24 12:14:16;;;;;;;7.20;2.60;;;;;;;11.16;93.27;100363.47;2247589;79;20977;-84
2021/10/24 12:17:17;;;;;;;9.00;3.02;;;;;;;11.19;93.05;100364.00;2247906;79;21129;-85
2021/10/24 12:20:21;;;;;;;5.62;2.42;;;;;;;11.21;90.98;100359.91;2227368;79;20961;-84
2021/10/24 12:23:22;;;;;;;6.20;2.83;;;;;;;11.16;91.16;100365.60;2247545;79;21030;-91
2021/10/24 12:26:23;;;;;;;8.35;3.42;;;;;;;11.18;90.17;100358.90;2247725;79;20970;-86
2021/10/24 12:29:23;;;;;;;7.85;2.90;;;;;;;11.30;90.31;100361.19;2227093;79;21052;-85
2021/10/24 12:32:24;;;;;;;5.90;2.83;;;;;;;11.44;91.43;100353.34;2247592;79;21001;-90
2021/10/24 12:35:25;;;;;;;6.25;2.98;;;;;;;11.58;89.63;100351.53;2247438;79;20974;-86
2021/10/24 12:38:26;;;;;;;8.50;3.58;;;;;;;11.61;89.57;100348.64;2243770;79;21372;-88
2021/10/24 12:41:27;;;;;;;5.70;2.92;;;;;;;11.60;89.04;100346.95;2244045;79;21489;-89
2021/10/24 12:44:28;;;;;;;9.53;3.47;;;;;;;11.61;89.49;100349.09;2243649;79;21062;-87
2021/10/24 12:47:29;;;;;;;9.80;3.52;;;;;;;11.57;89.24;100343.33;2243551;79;21001;-88
2021/10/24 12:50:29;;;;;;;6.65;3.00;;;;;;;11.58;88.21;100346.77;2243929;79;21427;-88
2021/10/24 12:53:30;;;;;;;10.08;3.37;;;;;;;11.60;88.53;100340.40;2244762;79;21082;-85
2021/10/24 12:56:34;;;;;;;8.53;3.10;;;;;;;11.60;89.28;100331.70;2244169;79;21073;-86
2021/10/24 12:59:35;;;;;;;9.28;4.22;;;;;;;11.53;89.60;100334.59;2244279;79;21038;-86
2021/10/24 13:02:38;;;;;;;6.78;3.92;;;;;;;11.37;88.00;100333.42;2244309;79;21000;-87
2021/10/24 13:05:39;;;;;;;8.83;3.77;;;;;;;11.19;88.32;100339.58;2243996;79;21053;-86
2021/10/24 13:08:41;;;;;;;5.33;3.12;;;;;;;11.01;89.91;100330.32;2243785;79;20981;-86
2021/10/24 13:11:42;;;;;;;12.85;3.12;;;;;;;10.98;88.71;100335.37;2221253;79;21034;-88
2021/10/24 13:14:46;;;;;;;7.28;2.83;;;;;;;10.85;89.34;100330.09;2243773;79;21021;-83
2021/10/24 13:17:46;;;;;;;6.67;3.25;;;;;;;10.79;92.17;100333.63;2243328;79;21101;-87
2021/10/24 13:20:56;;;;;;;6.53;3.05;;;;;;;10.82;90.09;100331.20;2243801;78;21070;-88
2021/10/24 13:23:49;;;;;;;5.00;2.65;;;;;;;10.91;91.25;100330.35;2242487;79;21467;-85
2021/10/24 13:26:52;;;;;;;3.67;2.80;;;;;;;10.98;89.59;100326.20;2239216;79;21021;-87
2021/10/24 13:29:53;;;;;;;6.70;2.52;;;;;;;11.02;88.42;100321.48;2243832;79;21092;-81
2021/10/24 13:32:56;;;;;;;11.93;2.83;;;;;;;11.04;88.58;100322.16;2243518;79;21069;-83
2021/10/24 13:35:58;;;;;;;5.12;2.17;;;;;;;11.05;88.35;100320.70;2243817;79;20962;-81
2021/10/24 13:38:59;;;;;;;3.40;2.12;;;;;;;11.16;88.17;100321.03;2243405;79;21105;-81
2021/10/24 13:42:00;;;;;;;4.70;2.10;;;;;;;11.11;87.64;100315.38;2243713;79;20974;-80
2021/10/24 13:45:05;;;;;;;7.05;2.45;;;;;;;11.05;87.46;100311.53;2243577;79;20974;-80
2021/10/24 13:48:06;;;;;;;3.98;3.12;;;;;;;11.00;87.23;100305.91;2242640;79;21588;-82